ADDS METAR Data INFO
IDs: Format: Raw Decoded Include TAF

Data at: 1923 UTC 16 Aug 2017

KRPH 161915Z AUTO 17007KT 10SM SCT039 SCT044 33/23 A2989 RMK AO2 T03340230
KRPH 161855Z AUTO 20007G16KT 10SM SCT035 33/23 A2989 RMK AO2 T03280226
KRPH 161835Z AUTO 16006G14KT 10SM SCT035 33/23 A2990 RMK AO2 T03250226
KRPH 161815Z AUTO 19009G15KT 10SM SCT033 32/23 A2990 RMK AO2 T03230227
KRPH 161755Z AUTO 15010G14KT 10SM SCT029 32/23 A2991 RMK AO2 T03150227 10315 20248
KRPH 161735Z AUTO 17009G17KT 10SM BKN029 31/23 A2992 RMK AO2 T03120226
KRPH 161715Z AUTO 19009KT 140V200 10SM SCT027 31/23 A2992 RMK AO2 T03050229
KRPH 161655Z AUTO 20007KT 10SM SCT025 29/23 A2993 RMK AO2 T02890228
KRPH 161635Z AUTO 19007KT 10SM CLR 28/23 A2993 RMK AO2 T02800232
KRPH 161615Z AUTO 17007KT 130V190 10SM CLR 28/24 A2993 RMK AO2 T02750235
KRPH 161555Z AUTO 16005KT 10SM CLR 27/24 A2993 RMK AO2 T02690243
KRPH 161535Z AUTO 15005KT 10SM CLR 26/26 A2992 RMK AO2 T02610258
KRPH 161515Z AUTO 15004KT 10SM CLR 26/26 A2992 RMK AO2 T02560256
KRPH 161455Z AUTO 15003KT 10SM CLR 26/26 A2992 RMK AO2 T02550255
KRPH 161435Z AUTO 15003KT 10SM RA SCT036 SCT043 SCT050 25/25 A2992 RMK AO2 T02520252
KRPH 161415Z AUTO 15004KT 10SM CLR 26/25 A2991 RMK AO2 T02560252
KRPH 161355Z AUTO 15005KT 10SM SCT050 25/25 A2990 RMK AO2 T02520252
KRPH 161335Z AUTO 14004KT 7SM -RA SCT038 SCT046 SCT050 25/25 A2990 RMK AO2 T02490249
KRPH 161315Z AUTO 15006KT 10SM RA SCT022 SCT029 SCT035 26/23 A2989 RMK AO2 T02590225
KRPH 161255Z AUTO 15005KT 10SM CLR 26/22 A2988 RMK AO2 T02600222
KRPH 161235Z AUTO 15006KT 10SM CLR 26/22 A2987 RMK AO2 T02610221
KRPH 161215Z AUTO 15005KT 10SM CLR 26/22 A2986 RMK AO2 T02600220
KRPH 161155Z AUTO 11004KT 10SM CLR 26/22 A2986 RMK AO2 T02600220 10280 20257
KRPH 161135Z AUTO 15004KT 10SM CLR 26/22 A2986 RMK AO2 T02610219
KRPH 161115Z AUTO 14005KT 10SM CLR 26/22 A2985 RMK AO2 T02610217
KRPH 161055Z AUTO 14005KT 10SM SCT070 SCT080 26/22 A2984 RMK AO2 T02580218
KRPH 161035Z AUTO 14004KT 10SM -DZ SCT047 SCT060 SCT070 26/22 A2984 RMK AO2 T02590217
KRPH 161015Z AUTO 13003KT 10SM SCT120 26/21 A2984 RMK AO2 T02600213
KRPH 160955Z AUTO 13003KT 10SM CLR 26/21 A2984 RMK AO2 T02610212
KRPH 160935Z AUTO 00000KT 10SM CLR 27/21 A2985 RMK AO2 T02660211
KRPH 160915Z AUTO 16003KT 10SM SCT050 SCT060 SCT080 27/21 A2985 RMK AO2 T02700210
KRPH 160855Z AUTO 18004KT 10SM -RA SCT050 SCT070 BKN090 27/21 A2986 RMK AO2 T02720210
KRPH 160835Z AUTO 15004KT 10SM SCT080 SCT120 28/21 A2985 RMK AO2 T02760207
KRPH 160815Z AUTO 16006KT 10SM SCT080 28/21 A2984 RMK AO2 T02780206
KRPH 160755Z AUTO 15007KT 10SM CLR 28/21 A2983 RMK AO2 T02800205
KRPH 160735Z AUTO 15006KT 10SM SCT090 28/21 A2983 RMK AO2 T02780205
KRPH 160715Z AUTO 14006KT 10SM CLR 28/21 A2982 RMK AO2 T02770207
KRPH 160655Z AUTO 14007KT 10SM SCT100 28/21 A2982 RMK AO2 T02780210
KRPH 160635Z AUTO 13004KT 10SM BKN100 27/22 A2982 RMK AO2 T02710218
KRPH 160615Z AUTO 13003KT 10SM SCT110 27/22 A2983 RMK AO2 T02700222
KRPH 160555Z AUTO 00000KT 10SM BKN110 27/22 A2983 RMK AO2 T02710223 10297 20260 403100236
KRPH 160535Z AUTO 00000KT 10SM OVC100 27/23 A2984 RMK AO2 T02690225
KRPH 160515Z AUTO 00000KT 10SM OVC100 27/23 A2984 RMK AO2 T02670227
KRPH 160455Z AUTO 00000KT 10SM BKN110 27/23 A2985 RMK AO2 T02670226
KRPH 160435Z AUTO 00000KT 10SM CLR 27/23 A2985 RMK AO2 T02690227
KRPH 160415Z AUTO 00000KT 10SM CLR 27/23 A2985 RMK AO2 T02710225
KRPH 160355Z AUTO 10003KT 10SM SCT075 SCT085 27/23 A2984 RMK AO2 T02700226
KRPH 160335Z AUTO 00000KT 10SM SCT065 BKN085 27/23 A2984 RMK AO2 T02660229
KRPH 160315Z AUTO 00000KT 10SM SCT065 SCT080 SCT085 27/23 A2983 RMK AO2 T02650233
KRPH 160255Z AUTO 07003KT 10SM SCT065 26/24 A2983 RMK AO2 T02600242
KRPH 160235Z AUTO 00000KT 10SM CLR 26/24 A2982 RMK AO2 T02600242
KRPH 160215Z AUTO 00000KT 10SM CLR 27/23 A2980 RMK AO2 T02660232
KRPH 160155Z AUTO 08003KT 10SM CLR 27/23 A2979 RMK AO2 T02700231
KRPH 160135Z AUTO 08003KT 10SM CLR 27/23 A2978 RMK AO2 T02710231
KRPH 160115Z AUTO 08003KT 10SM CLR 28/23 A2978 RMK AO2 T02760230
KRPH 160055Z AUTO 07003KT 10SM CLR 29/23 A2978 RMK AO2 T02850230
KRPH 160035Z AUTO 00000KT 10SM CLR 30/23 A2979 RMK AO2 T02970226
KRPH 160015Z AUTO 00000KT 10SM CLR 30/22 A2979 RMK AO2 T02950224
KRPH 152355Z AUTO 00000KT 10SM CLR 30/22 A2979 RMK AO2 T02960222 10306 20278
KRPH 152335Z AUTO 27005KT 10SM CLR 30/22 A2978 RMK AO2 T02960222
KRPH 152315Z AUTO 25004KT 10SM CLR 30/22 A2978 RMK AO2 T02950224
KRPH 152255Z AUTO 19003KT 10SM CLR 29/23 A2976 RMK AO2 T02940225
KRPH 152235Z AUTO 15009G14KT 10SM CLR 30/22 A2975 RMK AO2 T02950222
KRPH 152215Z AUTO 15009G14KT 10SM CLR 30/22 A2977 RMK AO2 T02950224
KRPH 152155Z AUTO 15009KT 10SM SCT110 29/22 A2978 RMK AO2 T02890222
KRPH 152135Z AUTO 15006KT 10SM SCT110 29/23 A2980 RMK AO2 T02850227
KRPH 152115Z AUTO 16005KT 10SM SCT120 28/23 A2982 RMK AO2 T02830232
KRPH 152055Z AUTO 19004KT 10SM BKN120 28/24 A2983 RMK AO2 T02780235
KRPH 152035Z AUTO 18004KT 10SM -DZ CLR 28/23 A2984 RMK AO2 T02800233
KRPH 152015Z AUTO 19004KT 10SM -RA SCT041 29/23 A2985 RMK AO2 T02860231
KRPH 151955Z AUTO 20006KT 10SM CLR 30/23 A2985 RMK AO2 T02970225
KRPH 151935Z AUTO 21007KT 10SM CLR 30/23 A2985 RMK AO2 T02970227
KRPH 151915Z AUTO 19007KT 10SM CLR 30/23 A2986 RMK AO2 T03000225
KRPH 151855Z AUTO 21006KT 10SM CLR 30/22 A2986 RMK AO2 T02980223
KRPH 151835Z AUTO 19005KT 10SM CLR 30/22 A2986 RMK AO2 T03010224
KRPH 151815Z AUTO 21006KT 10SM CLR 31/22 A2986 RMK AO2 T03060223
KRPH 151755Z AUTO 20007KT 10SM CLR 30/22 A2986 RMK AO2 T03010222 10310 20236
KRPH 151735Z AUTO 19008KT 10SM CLR 30/22 A2986 RMK AO2 T03030223
KRPH 151715Z AUTO 18006KT 10SM CLR 30/22 A2987 RMK AO2 T03000223
KRPH 151655Z AUTO 20007KT 10SM CLR 30/23 A2987 RMK AO2 T03000225
KRPH 151635Z AUTO 18006KT 10SM SCT100 30/22 A2988 RMK AO2 T03000224
KRPH 151615Z AUTO 19006KT 10SM SCT100 30/22 A2987 RMK AO2 T02990223
KRPH 151555Z AUTO 18007KT 10SM SCT043 SCT085 SCT110 29/22 A2987 RMK AO2 T02860222
KRPH 151535Z AUTO 18007G15KT 10SM SCT085 SCT110 29/22 A2986 RMK AO2 T02930220
KRPH 151515Z AUTO 18005KT 10SM SCT110 28/22 A2986 RMK AO2 T02830219
KRPH 151455Z AUTO 19005KT 10SM SCT090 28/22 A2986 RMK AO2 T02780217
KRPH 151435Z AUTO 17005KT 10SM SCT090 28/22 A2986 RMK AO2 T02750220
KRPH 151415Z AUTO 00000KT 10SM SCT090 27/22 A2986 RMK AO2 T02670221
KRPH 151355Z AUTO 18005KT 10SM CLR 27/22 A2985 RMK AO2 T02680217
KRPH 151330Z AUTO 00000KT 10SM CLR 26/22 A2985 RMK AO2 T02550222
KRPH 151315Z AUTO 00000KT 10SM CLR 25/23 A2985 RMK AO2 T02490225
KRPH 151255Z AUTO 14004KT 10SM SCT100 25/23 A2985 RMK AO2 T02450234
KRPH 151235Z AUTO 00000KT 10SM CLR 24/24 A2984 RMK AO2 T02410236
KRPH 151215Z AUTO 00000KT 10SM CLR 24/24 A2984 RMK AO2 T02370237
KRPH 151155Z AUTO 26003KT 10SM SCT100 25/22 A2984 RMK AO2 T02450224 10260 20240
KRPH 151135Z AUTO 25004KT 10SM SCT090 25/22 A2984 RMK AO2 T02500216
KRPH 151115Z AUTO 28008KT 10SM SCT090 BKN120 25/22 A2984 RMK AO2 T02520215
KRPH 151055Z AUTO 17004KT 10SM BKN110 26/21 A2981 RMK AO2 T02560211
KRPH 151035Z AUTO 16004KT 10SM BKN100 BKN120 26/21 A2981 RMK AO2 T02550210
KRPH 151015Z AUTO 15003KT 10SM SCT100 SCT120 25/21 A2981 RMK AO2 T02520210
KRPH 150955Z AUTO 14003KT 10SM CLR 25/21 A2980 RMK AO2 T02540210
KRPH 150935Z AUTO 15003KT 10SM CLR 26/21 A2980 RMK AO2 T02570209
KRPH 150915Z AUTO 16005KT 10SM CLR 26/21 A2979 RMK AO2 T02590210
KRPH 150855Z AUTO 15004KT 10SM CLR 26/22 A2978 RMK AO2 T02560215
KRPH 150835Z AUTO 14004KT 10SM CLR 25/23 A2978 RMK AO2 T02510228
KRPH 150815Z AUTO 13004KT 10SM CLR 25/24 A2979 RMK AO2 T02490243
KRPH 150755Z AUTO 00000KT 10SM CLR 24/24 A2979 RMK AO2 T02430243
KRPH 150735Z AUTO 00000KT 10SM CLR 25/25 A2979 RMK AO2 T02500250